createdAt,value
2024-04-16T00:01:31.670Z,18.40
2024-04-16T00:06:36.132Z,20.40
2024-04-16T00:11:34.190Z,20.30
2024-04-16T00:16:30.425Z,20.00
2024-04-16T00:21:34.184Z,17.60
2024-04-16T00:26:34.235Z,20.50
2024-04-16T00:31:46.170Z,18.60
2024-04-16T00:37:01.836Z,24.10
2024-04-16T00:44:36.759Z,18.10
2024-04-16T01:01:32.636Z,14.80
2024-04-16T01:04:58.047Z,14.80
2024-04-16T01:10:00.284Z,22.10
2024-04-16T01:15:04.110Z,16.70
2024-04-16T01:20:00.475Z,19.50
2024-04-16T01:25:00.343Z,21.70
2024-04-16T01:29:58.240Z,19.50
2024-04-16T01:34:59.989Z,19.40
2024-04-16T01:40:02.264Z,24.50
2024-04-16T01:45:00.140Z,24.00
2024-04-16T01:49:59.948Z,25.00
2024-04-16T01:55:00.080Z,20.60
2024-04-16T02:00:02.055Z,21.80
2024-04-16T02:04:57.939Z,22.10
2024-04-16T02:10:02.213Z,20.40
2024-04-16T02:14:57.938Z,22.10
2024-04-16T02:20:00.157Z,23.10
2024-04-16T02:25:00.289Z,21.80
2024-04-16T02:30:01.973Z,22.90
2024-04-16T02:34:57.889Z,20.70
2024-04-16T02:40:02.210Z,21.50
2024-04-16T02:45:00.156Z,21.60
2024-04-16T02:50:00.001Z,21.40
2024-04-16T02:55:02.041Z,23.90
2024-04-16T02:59:59.972Z,23.90
2024-04-16T03:05:00.027Z,17.90
2024-04-16T03:09:57.893Z,17.30
2024-04-16T03:15:02.252Z,17.10
2024-04-16T03:20:02.182Z,16.70
2024-04-16T03:25:00.092Z,17.50
2024-04-16T03:30:04.062Z,14.70
2024-04-16T03:34:58.180Z,19.10
2024-04-16T03:40:00.999Z,17.90
2024-04-16T03:45:04.034Z,16.80
2024-04-16T03:49:57.840Z,17.20
2024-04-16T03:55:00.768Z,16.30
2024-04-16T04:04:57.909Z,17.30
2024-04-16T04:09:59.957Z,16.80
2024-04-16T04:15:03.971Z,17.10
2024-04-16T04:19:57.848Z,16.10
2024-04-16T04:24:59.950Z,17.50
2024-04-16T04:30:05.550Z,15.90
2024-04-16T04:34:57.909Z,14.70
2024-04-16T04:39:59.986Z,17.70
2024-04-16T04:45:04.096Z,15.20
2024-04-16T04:49:59.460Z,18.60
2024-04-16T04:55:01.434Z,14.30
2024-04-16T05:00:05.791Z,14.80
2024-04-16T05:04:57.804Z,11.00
2024-04-16T05:09:59.792Z,10.60
2024-04-16T05:14:58.133Z,8.80
2024-04-16T05:19:59.910Z,6.10
2024-04-16T05:24:57.796Z,5.20
2024-04-16T05:29:58.076Z,8.30
2024-04-16T05:34:58.015Z,42.50
2024-04-16T05:40:00.454Z,9.40
2024-04-16T05:44:58.028Z,4.50
2024-04-16T05:50:01.805Z,1.80
2024-04-16T05:54:58.019Z,3.90
2024-04-16T06:00:04.911Z,2.20
2024-04-16T06:04:58.055Z,1.90
2024-04-16T06:09:57.718Z,4.20
2024-04-16T06:15:04.060Z,3.10
2024-04-16T06:20:01.792Z,1.90
2024-04-16T06:24:59.796Z,2.60
2024-04-16T06:29:58.517Z,1.40
2024-04-16T06:35:01.854Z,1.60
2024-04-16T06:39:57.763Z,2.40
2024-04-16T06:45:03.992Z,4.10
2024-04-16T06:49:57.706Z,3.80
2024-04-16T06:55:00.462Z,2.90
2024-04-16T07:00:04.132Z,3.70
2024-04-16T07:04:59.747Z,4.20
2024-04-16T07:10:01.761Z,2.80
2024-04-16T07:15:03.934Z,3.90
2024-04-16T07:19:57.665Z,3.90
2024-04-16T07:25:01.796Z,2.60
2024-04-16T07:30:03.882Z,3.70
2024-04-16T07:34:59.755Z,5.30
2024-04-16T07:39:58.331Z,5.60
2024-04-16T07:45:03.867Z,3.60
2024-04-16T07:49:57.740Z,4.70
2024-04-16T07:55:01.707Z,4.30
2024-04-16T08:00:03.808Z,5.30
2024-04-16T08:04:57.804Z,6.70
2024-04-16T08:10:01.345Z,5.10
2024-04-16T08:14:59.456Z,2.10
2024-04-16T08:19:59.795Z,4.00
2024-04-16T08:25:03.812Z,2.60
2024-04-16T08:30:01.903Z,5.00
2024-04-16T08:34:57.817Z,5.30
2024-04-16T08:40:04.039Z,5.00
2024-04-16T08:45:01.489Z,3.20
2024-04-16T08:49:59.914Z,6.00
2024-04-16T08:54:58.831Z,5.90
2024-04-16T09:00:01.801Z,4.20
2024-04-16T09:05:01.356Z,3.80
2024-04-16T09:10:04.691Z,7.10
2024-04-16T09:15:00.553Z,3.60
2024-04-16T09:20:02.210Z,5.40
2024-04-16T09:25:08.142Z,6.10
2024-04-16T09:30:07.543Z,5.00
2024-04-16T09:34:57.621Z,4.00
2024-04-16T09:40:04.830Z,5.60
2024-04-16T09:45:00.517Z,4.50
2024-04-16T09:50:11.239Z,5.10
2024-04-16T09:55:06.962Z,4.70
2024-04-16T10:00:00.878Z,5.30
2024-04-16T10:05:04.207Z,7.00
2024-04-16T10:09:58.103Z,4.00
2024-04-16T10:15:02.706Z,5.70
2024-04-16T10:20:01.739Z,6.40
2024-04-16T10:25:04.153Z,5.40
2024-04-16T10:30:11.182Z,6.30
2024-04-16T10:34:59.247Z,4.90
2024-04-16T10:40:03.841Z,3.40
2024-04-16T10:45:04.277Z,4.50
2024-04-16T10:50:00.978Z,10.80
2024-04-16T10:55:02.903Z,4.20
2024-04-16T11:00:10.232Z,4.10
2024-04-16T11:04:59.588Z,4.40
2024-04-16T11:09:57.589Z,6.50
2024-04-16T11:15:03.826Z,7.20
2024-04-16T11:20:00.297Z,6.00
2024-04-16T11:25:01.705Z,5.70
2024-04-16T11:30:06.508Z,3.90
2024-04-16T11:34:57.718Z,4.20
2024-04-16T11:40:01.614Z,7.50
2024-04-16T11:45:03.673Z,9.30
2024-04-16T11:49:58.078Z,4.30
2024-04-16T11:55:01.544Z,7.60
2024-04-16T12:00:02.159Z,5.70
2024-04-16T12:04:59.669Z,5.90
2024-04-16T12:09:59.503Z,8.10
2024-04-16T12:15:03.696Z,4.20
2024-04-16T12:19:57.475Z,5.90
2024-04-16T12:24:57.572Z,4.30
2024-04-16T12:30:04.314Z,3.80
2024-04-16T12:34:57.540Z,8.50
2024-04-16T12:39:59.473Z,4.20
2024-04-16T12:45:03.759Z,5.40
2024-04-16T12:49:57.460Z,6.40
2024-04-16T12:54:59.454Z,4.90
2024-04-16T13:00:03.677Z,8.10
2024-04-16T13:04:57.452Z,5.40
2024-04-16T13:09:59.666Z,5.40
2024-04-16T13:15:04.039Z,4.10
2024-04-16T13:19:58.357Z,3.20
2024-04-16T13:24:57.514Z,5.50
2024-04-16T13:30:03.905Z,5.50
2024-04-16T13:34:59.941Z,4.40
2024-04-16T13:39:57.807Z,4.30
2024-04-16T13:44:57.485Z,4.80
2024-04-16T13:49:59.529Z,4.20
2024-04-16T13:54:57.461Z,4.00
2024-04-16T13:59:58.012Z,6.00
2024-04-16T14:05:15.822Z,4.00
2024-04-16T14:09:57.466Z,4.70
2024-04-16T14:15:04.064Z,4.00
2024-04-16T14:19:59.681Z,8.10
2024-04-16T14:24:57.443Z,6.30
2024-04-16T14:30:05.371Z,5.90
2024-04-16T14:34:57.430Z,5.90
2024-04-16T14:39:59.404Z,4.90
2024-04-16T14:45:03.604Z,5.60
2024-04-16T14:49:57.478Z,4.80
2024-04-16T14:54:59.692Z,7.30
2024-04-16T14:59:57.680Z,12.70
2024-04-16T15:04:59.448Z,4.20
2024-04-16T15:09:59.477Z,5.80
2024-04-16T15:15:03.574Z,4.20
2024-04-16T15:19:57.349Z,6.00
2024-04-16T15:24:59.512Z,6.30
2024-04-16T15:30:03.686Z,8.50
2024-04-16T15:34:59.491Z,7.10
2024-04-16T15:40:00.197Z,6.60
2024-04-16T15:45:03.642Z,4.00
2024-04-16T15:49:57.770Z,4.90
2024-04-16T15:54:59.449Z,7.50
2024-04-16T16:00:03.622Z,12.50
2024-04-16T16:04:59.554Z,5.50
2024-04-16T16:10:01.737Z,6.40
2024-04-16T16:15:03.602Z,5.60
2024-04-16T16:20:01.512Z,7.40
2024-04-16T16:24:57.297Z,9.00
2024-04-16T16:30:03.520Z,5.70
2024-04-16T16:35:01.309Z,6.60
2024-04-16T16:40:01.866Z,6.30
2024-04-16T16:45:03.124Z,8.10
2024-04-16T16:49:59.370Z,12.40
2024-04-16T16:55:01.513Z,4.70
2024-04-16T16:59:57.501Z,3.80
2024-04-16T17:04:59.429Z,4.70
2024-04-16T17:10:01.885Z,6.50
2024-04-16T17:15:01.429Z,4.10
2024-04-16T17:19:57.345Z,4.60
2024-04-16T17:25:03.408Z,3.70
2024-04-16T17:30:01.410Z,5.40
2024-04-16T17:34:59.532Z,6.20
2024-04-16T17:40:03.594Z,5.80
2024-04-16T17:44:57.445Z,5.60
2024-04-16T17:49:57.363Z,5.30
2024-04-16T17:55:03.602Z,3.20
2024-04-16T17:59:58.106Z,8.60
2024-04-16T18:04:59.352Z,4.60
2024-04-16T18:10:03.536Z,5.30
2024-04-16T18:14:59.350Z,4.30
2024-04-16T18:19:58.730Z,4.30
2024-04-16T18:25:03.636Z,4.60
2024-04-16T18:30:01.692Z,4.70
2024-04-16T18:34:59.287Z,4.80
2024-04-16T18:40:01.383Z,4.30
2024-04-16T18:45:01.568Z,3.80
2024-04-16T18:49:59.374Z,3.90
2024-04-16T18:55:03.844Z,4.80
2024-04-16T19:00:00.045Z,6.10
2024-04-16T19:04:59.280Z,8.60
2024-04-16T19:10:01.392Z,4.50
2024-04-16T19:14:59.657Z,20.90
2024-04-16T19:19:58.427Z,16.10
2024-04-16T19:25:01.311Z,8.60
2024-04-16T19:29:59.323Z,12.50
2024-04-16T19:34:59.308Z,14.30
2024-04-16T19:40:02.608Z,6.40
2024-04-16T19:44:59.341Z,60.80
2024-04-16T19:49:59.471Z,35.00
2024-04-16T19:54:59.343Z,13.60
2024-04-16T20:00:03.149Z,19.40
2024-04-16T20:04:57.287Z,37.00
2024-04-16T20:10:01.335Z,8.20
2024-04-16T20:15:01.691Z,13.90
2024-04-16T20:19:59.513Z,10.00
2024-04-16T20:24:59.201Z,15.70
2024-04-16T20:30:01.286Z,9.90
2024-04-16T20:35:01.237Z,23.70
2024-04-16T20:40:01.205Z,8.10
2024-04-16T20:44:59.206Z,10.00
2024-04-16T20:50:01.169Z,8.60
2024-04-16T20:54:59.351Z,8.30
2024-04-16T21:00:01.300Z,8.00
2024-04-16T21:05:01.205Z,8.10
2024-04-16T21:10:01.540Z,10.00
2024-04-16T21:14:57.152Z,9.40
2024-04-16T21:20:03.550Z,9.10
2024-04-16T21:24:59.210Z,11.00
2024-04-16T21:30:01.223Z,15.00
2024-04-16T21:35:01.350Z,10.00
2024-04-16T21:40:01.218Z,12.70
2024-04-16T21:45:01.178Z,14.80
2024-04-16T21:50:03.680Z,14.70
2024-04-16T21:54:59.112Z,12.40
2024-04-16T21:59:59.582Z,14.50
2024-04-16T22:05:03.372Z,15.20
2024-04-16T22:09:57.042Z,14.30
2024-04-16T22:15:01.157Z,15.10
2024-04-16T22:20:01.219Z,12.50
2024-04-16T22:24:59.064Z,12.70
2024-04-16T22:30:01.516Z,15.10
2024-04-16T22:34:59.422Z,12.60
2024-04-16T22:39:59.082Z,11.90
2024-04-16T22:45:03.240Z,12.00
2024-04-16T22:49:58.628Z,15.20
2024-04-16T22:54:59.210Z,13.20
2024-04-16T23:00:03.189Z,15.80
2024-04-16T23:04:59.117Z,19.50
2024-04-16T23:09:59.081Z,15.10
2024-04-16T23:15:03.076Z,13.00
2024-04-16T23:19:59.096Z,13.70
2024-04-16T23:24:59.035Z,13.40
2024-04-16T23:29:57.240Z,14.50
2024-04-16T23:34:59.586Z,13.50
2024-04-16T23:39:56.985Z,15.80
2024-04-16T23:45:03.178Z,12.90
2024-04-16T23:49:59.307Z,14.80
2024-04-16T23:54:58.978Z,14.40
